createdAt,value
2023-03-02T00:01:39.468Z,15.93
2023-03-02T00:04:08.664Z,13.07
2023-03-02T00:06:37.392Z,15.10
2023-03-02T00:09:06.305Z,13.60
2023-03-02T00:11:35.732Z,13.60
2023-03-02T00:14:02.851Z,13.37
2023-03-02T00:16:29.731Z,14.90
2023-03-02T00:18:56.955Z,14.73
2023-03-02T00:21:24.801Z,14.90
2023-03-02T00:23:52.595Z,13.63
2023-03-02T00:26:20.331Z,13.80
2023-03-02T00:28:47.165Z,17.40
2023-03-02T00:31:14.254Z,16.20
2023-03-02T00:33:41.098Z,15.20
2023-03-02T00:36:16.881Z,16.37
2023-03-02T00:38:44.223Z,12.80
2023-03-02T00:41:12.518Z,12.60
2023-03-02T00:43:40.049Z,16.30
2023-03-02T00:46:22.510Z,13.73
2023-03-02T00:48:50.472Z,14.00
2023-03-02T00:51:18.082Z,13.83
2023-03-02T00:53:44.944Z,15.30
2023-03-02T00:56:12.284Z,17.57
2023-03-02T00:58:39.272Z,13.87
2023-03-02T01:01:08.838Z,15.67
2023-03-02T01:03:36.196Z,12.87
2023-03-02T01:06:04.213Z,16.00
2023-03-02T01:08:31.370Z,14.23
2023-03-02T01:11:01.511Z,14.77
2023-03-02T01:13:28.740Z,15.13
2023-03-02T01:16:02.906Z,16.53
2023-03-02T01:18:29.934Z,15.93
2023-03-02T01:21:05.886Z,13.93
2023-03-02T01:23:33.086Z,14.97
2023-03-02T01:26:00.083Z,16.73
2023-03-02T01:28:26.876Z,14.73
2023-03-02T01:30:54.447Z,17.40
2023-03-02T01:33:21.656Z,14.50
2023-03-02T01:35:48.671Z,15.00
2023-03-02T01:38:15.589Z,16.17
2023-03-02T01:40:42.348Z,15.27
2023-03-02T01:43:16.786Z,14.17
2023-03-02T01:45:54.909Z,15.70
2023-03-02T01:48:47.314Z,16.13
2023-03-02T01:51:18.593Z,16.23
2023-03-02T01:53:48.747Z,14.33
2023-03-02T01:56:23.812Z,15.63
2023-03-02T01:58:55.529Z,15.87
2023-03-02T02:01:23.091Z,13.23
2023-03-02T02:03:51.275Z,15.70
2023-03-02T02:06:49.141Z,14.67
2023-03-02T02:09:19.667Z,16.67
2023-03-02T02:11:46.649Z,15.07
2023-03-02T02:14:13.660Z,15.93
2023-03-02T02:16:41.118Z,15.77
2023-03-02T02:19:24.954Z,16.90
2023-03-02T02:21:51.904Z,15.23
2023-03-02T02:24:25.917Z,13.93
2023-03-02T02:26:54.809Z,14.83
2023-03-02T02:29:27.030Z,19.77
2023-03-02T02:31:59.234Z,14.70
2023-03-02T02:34:41.335Z,18.27
2023-03-02T02:37:33.607Z,14.87
2023-03-02T02:40:02.326Z,17.53
2023-03-02T02:42:32.740Z,16.20
2023-03-02T02:45:03.823Z,16.47
2023-03-02T02:47:30.743Z,22.13
2023-03-02T02:49:57.841Z,17.97
2023-03-02T02:52:28.202Z,17.50
2023-03-02T02:54:58.266Z,18.27
2023-03-02T02:57:28.669Z,17.67
2023-03-02T03:00:00.463Z,17.97
2023-03-02T03:02:31.011Z,17.17
2023-03-02T03:05:02.693Z,21.73
2023-03-02T03:07:31.557Z,16.10
2023-03-02T03:10:09.818Z,15.83
2023-03-02T03:12:38.745Z,15.97
2023-03-02T03:15:07.609Z,17.07
2023-03-02T03:17:34.421Z,19.77
2023-03-02T03:20:06.509Z,15.03
2023-03-02T03:22:38.625Z,15.77
2023-03-02T03:25:06.429Z,16.43
2023-03-02T03:27:33.079Z,14.67
2023-03-02T03:30:01.960Z,16.50
2023-03-02T03:32:29.062Z,21.80
2023-03-02T03:34:56.409Z,15.40
2023-03-02T03:37:24.003Z,14.40
2023-03-02T03:39:51.036Z,15.37
2023-03-02T03:42:18.101Z,18.40
2023-03-02T03:44:44.836Z,17.83
2023-03-02T03:47:11.737Z,17.10
2023-03-02T03:49:38.447Z,14.87
2023-03-02T03:52:05.278Z,17.73
2023-03-02T03:54:32.588Z,14.83
2023-03-02T03:56:59.408Z,14.23
2023-03-02T03:59:26.958Z,15.07
2023-03-02T04:01:57.162Z,17.10
2023-03-02T04:04:29.689Z,14.40
2023-03-02T04:06:56.822Z,13.43
2023-03-02T04:09:24.958Z,13.63
2023-03-02T04:11:54.608Z,43.37
2023-03-02T04:14:23.367Z,17.40
2023-03-02T04:16:53.110Z,19.33
2023-03-02T04:19:20.482Z,17.57
2023-03-02T04:21:50.746Z,18.30
2023-03-02T04:24:19.919Z,17.07
2023-03-02T04:26:49.267Z,17.13
2023-03-02T04:29:16.801Z,16.77
2023-03-02T04:31:43.720Z,14.63
2023-03-02T04:34:10.786Z,15.07
2023-03-02T04:36:39.508Z,17.83
2023-03-02T04:39:07.364Z,14.70
2023-03-02T04:41:34.728Z,19.00
2023-03-02T04:44:01.395Z,14.83
2023-03-02T04:46:28.473Z,15.23
2023-03-02T04:48:55.689Z,16.30
2023-03-02T04:51:28.585Z,15.17
2023-03-02T04:54:00.297Z,15.20
2023-03-02T04:56:27.271Z,17.80
2023-03-02T04:58:54.637Z,14.60
2023-03-02T05:01:21.302Z,14.77
2023-03-02T05:03:48.496Z,15.53
2023-03-02T05:06:15.533Z,14.33
2023-03-02T05:08:42.299Z,15.50
2023-03-02T05:11:09.102Z,18.40
2023-03-02T05:13:36.037Z,16.10
2023-03-02T05:16:03.203Z,16.20
2023-03-02T05:18:30.167Z,15.37
2023-03-02T05:20:57.406Z,15.47
2023-03-02T05:23:25.707Z,16.20
2023-03-02T05:25:55.140Z,16.87
2023-03-02T05:28:23.835Z,15.80
2023-03-02T05:30:51.138Z,14.80
2023-03-02T05:33:18.610Z,16.63
2023-03-02T05:35:45.641Z,14.37
2023-03-02T05:38:16.981Z,15.37
2023-03-02T05:40:48.542Z,17.00
2023-03-02T05:43:17.731Z,13.70
2023-03-02T05:45:45.169Z,14.30
2023-03-02T05:48:13.754Z,14.77
2023-03-02T05:50:41.046Z,15.77
2023-03-02T05:53:08.056Z,21.17
2023-03-02T05:55:36.946Z,15.27
2023-03-02T05:58:11.747Z,15.53
2023-03-02T06:00:38.453Z,17.33
2023-03-02T06:03:05.152Z,15.43
2023-03-02T06:05:31.804Z,15.77
2023-03-02T06:07:58.410Z,16.40
2023-03-02T06:10:25.710Z,17.83
2023-03-02T06:12:52.568Z,17.07
2023-03-02T06:15:19.828Z,15.33
2023-03-02T06:17:46.614Z,14.90
2023-03-02T06:20:13.895Z,15.43
2023-03-02T06:22:43.418Z,14.80
2023-03-02T06:25:13.359Z,17.97
2023-03-02T06:27:41.061Z,16.43
2023-03-02T06:30:09.192Z,15.37
2023-03-02T06:32:35.985Z,22.03
2023-03-02T06:35:04.979Z,21.87
2023-03-02T06:37:32.508Z,16.13
2023-03-02T06:39:59.320Z,16.90
2023-03-02T06:42:27.457Z,18.60
2023-03-02T06:44:55.256Z,18.27
2023-03-02T06:47:23.100Z,19.83
2023-03-02T06:49:49.997Z,18.17
2023-03-02T06:52:17.506Z,17.87
2023-03-02T06:54:44.269Z,16.60
2023-03-02T06:57:11.165Z,17.83
2023-03-02T06:59:37.907Z,22.43
2023-03-02T07:02:04.755Z,14.77
2023-03-02T07:04:31.438Z,17.83
2023-03-02T07:06:58.084Z,16.97
2023-03-02T07:09:24.909Z,15.30
2023-03-02T07:11:51.656Z,14.50
2023-03-02T07:14:18.388Z,16.63
2023-03-02T07:16:45.213Z,16.23
2023-03-02T07:19:13.598Z,15.80
2023-03-02T07:21:40.893Z,13.60
2023-03-02T07:24:11.168Z,15.27
2023-03-02T07:26:38.037Z,18.00
2023-03-02T07:29:04.822Z,16.50
2023-03-02T07:31:32.226Z,15.53
2023-03-02T07:33:59.514Z,16.13
2023-03-02T07:36:26.565Z,16.50
2023-03-02T07:38:53.480Z,12.13
2023-03-02T07:41:20.610Z,18.53
2023-03-02T07:43:47.510Z,13.30
2023-03-02T07:46:14.739Z,15.97
2023-03-02T07:48:41.758Z,16.47
2023-03-02T07:51:08.724Z,15.93
2023-03-02T07:53:38.798Z,15.93
2023-03-02T07:56:09.905Z,14.73
2023-03-02T07:58:40.142Z,16.77
2023-03-02T08:01:07.338Z,22.17
2023-03-02T08:03:34.628Z,16.43
2023-03-02T08:06:10.488Z,18.80
2023-03-02T08:08:37.577Z,13.07
2023-03-02T08:11:12.629Z,19.27
2023-03-02T08:13:40.797Z,18.07
2023-03-02T08:16:09.547Z,15.03
2023-03-02T08:18:37.720Z,17.50
2023-03-02T08:21:11.601Z,17.97
2023-03-02T08:23:38.592Z,17.17
2023-03-02T08:26:05.708Z,15.93
2023-03-02T08:28:32.479Z,16.00
2023-03-02T08:31:00.985Z,13.10
2023-03-02T08:33:31.846Z,12.83
2023-03-02T08:36:02.614Z,14.90
2023-03-02T08:38:31.814Z,10.63
2023-03-02T08:40:59.189Z,11.77
2023-03-02T08:43:26.442Z,15.57
2023-03-02T08:45:55.463Z,17.73
2023-03-02T08:48:26.104Z,14.30
2023-03-02T08:51:03.552Z,15.80
2023-03-02T08:53:37.368Z,18.47
2023-03-02T08:56:04.636Z,17.40
2023-03-02T08:58:31.432Z,19.20
2023-03-02T09:00:59.143Z,15.53
2023-03-02T09:03:32.965Z,18.07
2023-03-02T09:05:59.994Z,11.40
2023-03-02T09:08:27.020Z,12.37
2023-03-02T09:10:54.045Z,16.07
2023-03-02T09:13:21.187Z,16.93
2023-03-02T09:15:47.897Z,13.30
2023-03-02T09:18:14.876Z,13.93
2023-03-02T09:20:41.806Z,12.47
2023-03-02T09:23:08.728Z,11.17
2023-03-02T09:25:35.589Z,13.70
2023-03-02T09:28:02.633Z,14.57
2023-03-02T09:30:29.518Z,15.03
2023-03-02T09:32:56.520Z,12.30
2023-03-02T09:35:23.843Z,9.50
2023-03-02T09:37:51.264Z,12.63
2023-03-02T09:40:33.860Z,15.20
2023-03-02T09:43:16.889Z,19.13
2023-03-02T09:45:52.376Z,15.40
2023-03-02T09:48:49.375Z,19.90
2023-03-02T09:51:35.174Z,17.13
2023-03-02T09:54:13.599Z,17.13
2023-03-02T09:56:50.500Z,19.10
2023-03-02T09:59:43.740Z,10.87
2023-03-02T10:02:19.431Z,19.70
2023-03-02T10:04:50.498Z,15.60
2023-03-02T10:07:27.794Z,13.83
2023-03-02T10:10:13.555Z,12.17
2023-03-02T10:13:20.447Z,12.73
2023-03-02T10:16:05.825Z,15.70
2023-03-02T10:18:43.951Z,13.93
2023-03-02T10:21:22.712Z,12.13
2023-03-02T10:24:08.318Z,11.47
2023-03-02T10:26:48.469Z,13.83
2023-03-02T10:29:44.638Z,15.87
2023-03-02T10:32:42.762Z,16.43
2023-03-02T10:35:16.437Z,12.97
2023-03-02T10:37:43.596Z,13.33
2023-03-02T10:40:29.030Z,15.67
2023-03-02T10:42:57.929Z,16.43
2023-03-02T10:45:37.200Z,10.57
2023-03-02T10:48:11.044Z,13.33
2023-03-02T10:50:39.014Z,9.13
2023-03-02T10:53:18.685Z,10.40
2023-03-02T10:55:52.744Z,11.10
2023-03-02T10:58:26.162Z,13.47
2023-03-02T11:01:05.365Z,9.63
2023-03-02T11:03:38.454Z,9.63
2023-03-02T11:06:20.129Z,11.33
2023-03-02T11:08:46.848Z,10.97
2023-03-02T11:11:24.869Z,9.70
2023-03-02T11:13:52.957Z,12.87
2023-03-02T11:16:20.091Z,12.13
2023-03-02T11:18:49.555Z,13.63
2023-03-02T11:21:35.865Z,14.13
2023-03-02T11:24:24.351Z,12.57
2023-03-02T11:26:56.252Z,10.50
2023-03-02T11:29:48.971Z,15.43
2023-03-02T11:32:27.623Z,15.37
2023-03-02T11:35:32.671Z,13.10
2023-03-02T11:38:21.641Z,12.97
2023-03-02T11:41:14.176Z,10.50
2023-03-02T11:43:41.325Z,21.10
2023-03-02T11:46:26.736Z,12.00
2023-03-02T11:49:19.412Z,8.73
2023-03-02T11:51:58.280Z,15.80
2023-03-02T11:54:44.628Z,14.50
2023-03-02T11:57:23.261Z,9.27
2023-03-02T11:59:51.440Z,10.80
2023-03-02T12:02:21.969Z,12.33
2023-03-02T12:04:49.066Z,14.50
2023-03-02T12:07:25.947Z,13.23
2023-03-02T12:10:14.032Z,11.40
2023-03-02T12:12:58.449Z,8.77
2023-03-02T12:15:41.201Z,10.53
2023-03-02T12:18:27.452Z,12.30
2023-03-02T12:21:06.742Z,16.97
2023-03-02T12:23:37.059Z,8.30
2023-03-02T12:26:25.161Z,18.40
2023-03-02T12:29:23.019Z,10.70
2023-03-02T12:31:56.087Z,14.60
2023-03-02T12:34:35.293Z,14.17
2023-03-02T12:37:08.334Z,10.93
2023-03-02T12:40:10.449Z,11.50
2023-03-02T12:43:00.247Z,15.17
2023-03-02T12:45:38.819Z,11.03
2023-03-02T12:48:22.703Z,11.63
2023-03-02T12:50:51.253Z,11.97
2023-03-02T12:53:20.360Z,14.03
2023-03-02T12:55:47.188Z,13.90
2023-03-02T12:58:27.749Z,16.80
2023-03-02T13:00:58.173Z,13.13
2023-03-02T13:03:26.511Z,11.07
2023-03-02T13:06:02.498Z,11.50
2023-03-02T13:08:29.961Z,12.40
2023-03-02T13:11:00.426Z,13.53
2023-03-02T13:13:35.587Z,12.87
2023-03-02T13:16:05.478Z,8.67
2023-03-02T13:18:36.477Z,9.63
2023-03-02T13:21:04.639Z,14.03
2023-03-02T13:23:33.343Z,12.80
2023-03-02T13:26:05.667Z,11.40
2023-03-02T13:28:38.159Z,13.30
2023-03-02T13:31:07.744Z,19.40
2023-03-02T13:33:42.718Z,14.37
2023-03-02T13:36:21.528Z,9.43
2023-03-02T13:38:50.943Z,10.73
2023-03-02T13:41:25.469Z,11.10
2023-03-02T13:43:52.602Z,19.90
2023-03-02T13:46:20.134Z,12.50
2023-03-02T13:49:09.166Z,16.80
2023-03-02T13:51:43.752Z,17.13
2023-03-02T13:54:21.950Z,22.50
2023-03-02T13:56:51.315Z,15.13
2023-03-02T13:59:19.552Z,19.17
2023-03-02T14:01:46.555Z,14.70
2023-03-02T14:04:16.698Z,9.77
2023-03-02T14:06:44.511Z,10.60
2023-03-02T14:09:11.410Z,10.00
2023-03-02T14:11:41.763Z,9.47
2023-03-02T14:14:12.261Z,12.17
2023-03-02T14:16:39.017Z,9.10
2023-03-02T14:19:05.681Z,6.90
2023-03-02T14:21:32.835Z,8.53
2023-03-02T14:23:59.753Z,16.53
2023-03-02T14:26:33.887Z,9.20
2023-03-02T14:29:15.564Z,9.50
2023-03-02T14:31:42.279Z,10.63
2023-03-02T14:34:12.812Z,9.90
2023-03-02T14:36:40.651Z,9.17
2023-03-02T14:39:30.489Z,7.60
2023-03-02T14:41:57.420Z,6.53
2023-03-02T14:44:24.172Z,7.10
2023-03-02T14:46:51.467Z,8.70
2023-03-02T14:49:18.132Z,15.97
2023-03-02T14:51:53.351Z,8.10
2023-03-02T14:54:20.225Z,6.67
2023-03-02T14:56:49.291Z,7.30
2023-03-02T14:59:16.812Z,9.00
2023-03-02T15:01:44.798Z,12.03
2023-03-02T15:04:11.679Z,11.53
2023-03-02T15:06:40.803Z,8.67
2023-03-02T15:09:08.608Z,12.87
2023-03-02T15:11:35.518Z,9.87
2023-03-02T15:14:02.512Z,12.90
2023-03-02T15:16:29.326Z,11.63
2023-03-02T15:18:58.703Z,9.97
2023-03-02T15:21:25.628Z,13.40
2023-03-02T15:23:52.380Z,10.90
2023-03-02T15:26:19.125Z,15.77
2023-03-02T15:28:49.322Z,10.80
2023-03-02T15:31:17.366Z,12.47
2023-03-02T15:33:45.694Z,17.67
2023-03-02T15:36:13.617Z,10.00
2023-03-02T15:38:40.702Z,11.53
2023-03-02T15:44:44.557Z,19.57
2023-03-02T15:47:14.643Z,10.73
2023-03-02T15:49:41.305Z,15.87
2023-03-02T15:52:08.067Z,14.27
2023-03-02T15:54:34.762Z,12.37
2023-03-02T15:57:01.416Z,13.30
2023-03-02T15:59:30.619Z,12.57
2023-03-02T16:02:02.348Z,12.60
2023-03-02T16:04:30.839Z,18.73
2023-03-02T16:06:58.013Z,18.73
2023-03-02T16:09:26.042Z,15.03
2023-03-02T16:11:52.835Z,13.87
2023-03-02T16:14:19.503Z,13.87
2023-03-02T16:16:46.696Z,16.27
2023-03-02T16:19:17.762Z,17.87
2023-03-02T16:21:46.336Z,15.23
2023-03-02T16:24:13.293Z,20.80
2023-03-02T16:26:39.978Z,13.53
2023-03-02T16:29:09.744Z,16.37
2023-03-02T16:31:38.490Z,23.80
2023-03-02T16:34:08.992Z,19.43
2023-03-02T16:36:45.128Z,16.43
2023-03-02T16:39:15.291Z,14.57
2023-03-02T16:41:47.170Z,12.37
2023-03-02T16:44:14.768Z,24.00
2023-03-02T16:46:43.665Z,20.83
2023-03-02T16:49:12.041Z,15.43
2023-03-02T16:51:39.200Z,26.20
2023-03-02T16:54:06.370Z,16.73
2023-03-02T16:56:33.491Z,17.17
2023-03-02T16:59:00.468Z,16.90
2023-03-02T17:01:28.364Z,19.33
2023-03-02T17:03:55.276Z,18.60
2023-03-02T17:06:24.340Z,24.67
2023-03-02T17:08:51.553Z,13.43
2023-03-02T17:11:20.185Z,16.03
2023-03-02T17:13:47.331Z,16.43
2023-03-02T17:16:14.423Z,23.60
2023-03-02T17:18:41.610Z,15.20
2023-03-02T17:21:08.867Z,21.57
2023-03-02T17:23:37.158Z,15.97
2023-03-02T17:26:04.505Z,19.80
2023-03-02T17:28:31.678Z,20.60
2023-03-02T17:31:00.423Z,21.30
2023-03-02T17:33:27.929Z,22.90
2023-03-02T17:35:54.981Z,23.03
2023-03-02T17:38:22.043Z,14.20
2023-03-02T17:40:48.870Z,19.50
2023-03-02T17:43:16.101Z,18.90
2023-03-02T17:46:28.449Z,22.60
2023-03-02T17:48:58.159Z,22.30
2023-03-02T17:51:31.103Z,20.13
2023-03-02T17:53:58.132Z,20.40
2023-03-02T17:56:27.554Z,22.60
2023-03-02T17:58:57.329Z,24.93
2023-03-02T18:01:29.256Z,27.27
2023-03-02T18:03:56.463Z,22.37
2023-03-02T18:06:24.249Z,24.83
2023-03-02T18:08:52.317Z,21.43
2023-03-02T18:11:21.830Z,20.63
2023-03-02T18:13:49.576Z,24.47
2023-03-02T18:16:16.581Z,22.93
2023-03-02T18:18:43.785Z,25.13
2023-03-02T18:21:11.047Z,24.47
2023-03-02T18:23:42.289Z,27.50
2023-03-02T18:26:09.511Z,22.77
2023-03-02T18:28:37.096Z,21.77
2023-03-02T18:31:04.476Z,25.47
2023-03-02T18:33:32.007Z,23.67
2023-03-02T18:36:00.900Z,20.73
2023-03-02T18:38:31.226Z,18.40
2023-03-02T18:41:01.042Z,21.43
2023-03-02T18:43:28.901Z,21.40
2023-03-02T18:45:57.991Z,23.10
2023-03-02T18:48:25.635Z,24.97
2023-03-02T18:50:55.984Z,22.40
2023-03-02T18:53:23.239Z,17.23
2023-03-02T18:55:52.958Z,20.20
2023-03-02T18:58:25.429Z,18.37
2023-03-02T19:00:54.600Z,22.30
2023-03-02T19:03:22.697Z,17.50
2023-03-02T19:05:50.082Z,21.00
2023-03-02T19:08:23.857Z,23.00
2023-03-02T19:10:53.164Z,18.23
2023-03-02T19:13:21.332Z,22.03
2023-03-02T19:15:48.800Z,18.57
2023-03-02T19:18:20.549Z,23.13
2023-03-02T19:20:49.134Z,27.70
2023-03-02T19:23:17.496Z,18.53
2023-03-02T19:25:45.703Z,23.17
2023-03-02T19:28:13.248Z,24.70
2023-03-02T19:30:41.041Z,21.83
2023-03-02T19:33:09.584Z,25.13
2023-03-02T19:35:40.483Z,26.00
2023-03-02T19:38:09.415Z,27.17
2023-03-02T19:40:37.499Z,21.83
2023-03-02T19:43:05.771Z,20.13
2023-03-02T19:45:38.879Z,22.27
2023-03-02T19:48:06.726Z,19.80
2023-03-02T19:50:34.181Z,18.10
2023-03-02T19:53:01.437Z,23.03
2023-03-02T19:55:28.798Z,22.50
2023-03-02T19:58:00.024Z,19.80
2023-03-02T20:00:30.791Z,18.00
2023-03-02T20:02:58.515Z,19.03
2023-03-02T20:05:27.632Z,20.70
2023-03-02T20:07:55.500Z,22.20
2023-03-02T20:10:37.169Z,23.17
2023-03-02T20:13:05.750Z,21.70
2023-03-02T20:15:35.011Z,23.63
2023-03-02T20:18:02.841Z,20.27
2023-03-02T20:20:31.740Z,24.60
2023-03-02T20:23:03.083Z,28.30
2023-03-02T20:25:30.944Z,23.20
2023-03-02T20:27:59.016Z,22.27
2023-03-02T20:30:37.658Z,29.37
2023-03-02T20:33:07.352Z,20.60
2023-03-02T20:35:40.179Z,18.80
2023-03-02T20:38:19.489Z,19.43
2023-03-02T20:40:46.930Z,20.13
2023-03-02T20:43:14.959Z,26.43
2023-03-02T20:45:42.460Z,27.20
2023-03-02T20:48:12.620Z,23.87
2023-03-02T20:50:41.362Z,23.13
2023-03-02T20:53:08.830Z,24.67
2023-03-02T20:55:36.129Z,22.63
2023-03-02T20:58:12.985Z,21.77
2023-03-02T21:00:46.348Z,21.53
2023-03-02T21:03:13.512Z,26.63
2023-03-02T21:05:41.277Z,24.83
2023-03-02T21:08:13.976Z,26.83
2023-03-02T21:10:45.401Z,29.30
2023-03-02T21:13:13.664Z,25.93
2023-03-02T21:15:41.452Z,27.60
2023-03-02T21:18:11.554Z,32.17
2023-03-02T21:20:40.134Z,23.40
2023-03-02T21:23:07.707Z,24.23
2023-03-02T21:25:35.061Z,23.83
2023-03-02T21:28:02.446Z,23.27
2023-03-02T21:30:34.260Z,24.03
2023-03-02T21:33:02.329Z,23.63
2023-03-02T21:35:30.205Z,24.17
2023-03-02T21:38:07.084Z,25.00
2023-03-02T21:40:38.042Z,25.43
2023-03-02T21:43:06.610Z,25.87
2023-03-02T21:45:34.402Z,24.60
2023-03-02T21:48:01.835Z,25.10
2023-03-02T21:50:32.460Z,26.83
2023-03-02T21:53:02.376Z,26.93
2023-03-02T21:55:31.244Z,29.17
2023-03-02T21:57:59.248Z,28.63
2023-03-02T22:00:38.879Z,29.40
2023-03-02T22:03:06.646Z,30.00
2023-03-02T22:05:34.612Z,27.57
2023-03-02T22:08:02.286Z,31.03
2023-03-02T22:10:38.962Z,32.00
2023-03-02T22:13:27.911Z,32.37
2023-03-02T22:16:16.152Z,28.40
2023-03-02T22:18:48.323Z,27.30
2023-03-02T22:21:38.317Z,28.57
2023-03-02T22:24:18.154Z,26.80
2023-03-02T22:27:08.971Z,31.03
2023-03-02T22:29:45.047Z,29.93
2023-03-02T22:32:19.441Z,30.80
2023-03-02T22:34:48.946Z,33.03
2023-03-02T22:37:22.966Z,35.00
2023-03-02T22:39:53.800Z,33.70
2023-03-02T22:42:34.252Z,31.50
2023-03-02T22:45:15.241Z,33.10
2023-03-02T22:47:44.346Z,31.40
2023-03-02T22:50:29.633Z,36.47
2023-03-02T22:52:58.910Z,29.83
2023-03-02T22:55:37.121Z,30.13
2023-03-02T22:58:30.833Z,31.53
2023-03-02T23:01:02.262Z,32.30
2023-03-02T23:03:41.518Z,31.50
2023-03-02T23:06:27.515Z,32.80
2023-03-02T23:08:57.593Z,31.20
2023-03-02T23:11:25.336Z,35.00
2023-03-02T23:13:53.879Z,33.67
2023-03-02T23:16:29.396Z,32.50
2023-03-02T23:18:59.464Z,31.07
2023-03-02T23:21:46.573Z,32.43
2023-03-02T23:24:13.774Z,34.33
2023-03-02T23:26:41.134Z,33.50
2023-03-02T23:29:08.281Z,31.83
2023-03-02T23:31:35.401Z,33.60
2023-03-02T23:34:02.604Z,39.30
2023-03-02T23:36:31.357Z,36.97
2023-03-02T23:38:59.181Z,35.23
2023-03-02T23:41:27.089Z,35.73
2023-03-02T23:43:54.251Z,33.30
2023-03-02T23:46:21.841Z,32.37
2023-03-02T23:48:49.009Z,36.27
2023-03-02T23:51:16.421Z,32.93
2023-03-02T23:53:44.332Z,32.57
2023-03-02T23:56:12.004Z,34.40
2023-03-02T23:58:39.101Z,33.87
